createdAt,value
2022-11-25T00:01:52.393Z,96855.00
2022-11-25T00:06:53.592Z,96851.00
2022-11-25T00:11:54.310Z,96848.00
2022-11-25T00:16:55.144Z,96842.00
2022-11-25T00:21:55.978Z,96844.00
2022-11-25T00:26:56.962Z,96845.00
2022-11-25T00:31:57.783Z,96839.00
2022-11-25T00:36:58.660Z,96846.00
2022-11-25T00:42:17.986Z,96841.00
2022-11-25T00:47:20.668Z,96846.00
2022-11-25T00:52:25.079Z,96840.00
2022-11-25T00:57:26.030Z,96843.00
2022-11-25T01:02:27.216Z,96856.00
2022-11-25T01:07:28.629Z,96849.00
2022-11-25T01:12:29.738Z,96849.00
2022-11-25T01:17:31.653Z,96858.00
2022-11-25T01:22:32.421Z,96856.00
2022-11-25T01:27:33.170Z,96851.00
2022-11-25T01:32:33.978Z,96850.00
2022-11-25T01:37:34.810Z,96840.00
2022-11-25T01:42:47.556Z,96840.00
2022-11-25T01:47:50.441Z,96840.00
2022-11-25T01:52:54.583Z,96835.00
2022-11-25T01:58:30.943Z,96829.00
2022-11-25T02:03:38.578Z,96834.00
2022-11-25T02:08:42.683Z,96833.00
2022-11-25T02:13:46.933Z,96831.00
2022-11-25T02:18:49.695Z,96830.00
2022-11-25T02:23:59.709Z,96834.00
2022-11-25T02:29:00.915Z,96832.00
2022-11-25T02:34:01.732Z,96827.00
2022-11-25T02:39:02.820Z,96821.00
2022-11-25T02:44:06.917Z,96822.00
2022-11-25T02:49:09.573Z,96823.00
2022-11-25T02:54:13.106Z,96821.00
2022-11-25T02:59:13.872Z,96823.00
2022-11-25T03:04:14.794Z,96813.00
2022-11-25T03:09:15.929Z,96814.00
2022-11-25T03:14:17.241Z,96809.00
2022-11-25T03:19:17.968Z,96808.00
2022-11-25T03:24:18.725Z,96808.00
2022-11-25T03:29:21.574Z,96801.00
2022-11-25T03:34:22.499Z,96811.00
2022-11-25T03:39:23.827Z,96808.00
2022-11-25T03:44:24.994Z,96804.00
2022-11-25T03:49:26.125Z,96816.00
2022-11-25T03:54:28.041Z,96824.00
2022-11-25T03:59:46.275Z,96817.00
2022-11-25T04:04:48.045Z,96818.00
2022-11-25T04:09:49.927Z,96813.00
2022-11-25T04:14:53.237Z,96819.00
2022-11-25T04:19:54.161Z,96819.00
2022-11-25T04:24:55.078Z,96820.00
2022-11-25T04:29:58.737Z,96812.00
2022-11-25T04:34:59.648Z,96809.00
2022-11-25T04:40:01.071Z,96817.00
2022-11-25T04:45:22.898Z,96813.00
2022-11-25T04:50:25.416Z,96803.00
2022-11-25T04:55:31.636Z,96819.00
2022-11-25T05:00:33.785Z,96821.00
2022-11-25T05:05:37.671Z,96819.00
2022-11-25T05:10:38.616Z,96830.00
2022-11-25T05:15:39.904Z,96840.00
2022-11-25T05:20:41.731Z,96837.00
2022-11-25T05:25:42.668Z,96851.00
2022-11-25T05:31:03.123Z,96837.00
2022-11-25T05:36:05.011Z,96829.00
2022-11-25T05:41:14.947Z,96819.00
2022-11-25T05:46:18.238Z,96822.00
2022-11-25T05:51:24.380Z,96847.00
2022-11-25T05:56:25.329Z,96847.00
2022-11-25T06:01:40.836Z,96845.00
2022-11-25T06:06:41.833Z,96852.00
2022-11-25T06:11:43.165Z,96856.00
2022-11-25T06:16:43.894Z,96856.00
2022-11-25T06:21:55.323Z,96861.00
2022-11-25T06:26:56.536Z,96871.00
2022-11-25T06:31:57.611Z,96872.00
2022-11-25T06:37:15.232Z,96872.00
2022-11-25T06:42:16.292Z,96878.00
2022-11-25T06:47:17.150Z,96887.00
2022-11-25T06:52:17.937Z,96888.00
2022-11-25T06:57:19.260Z,96891.00
2022-11-25T07:02:20.182Z,96900.00
2022-11-25T07:07:21.025Z,96900.00
2022-11-25T07:12:23.821Z,96909.00
2022-11-25T07:17:27.609Z,96908.00
2022-11-25T07:22:28.369Z,96906.00
2022-11-25T07:27:29.142Z,96905.00
2022-11-25T07:32:32.736Z,96909.00
2022-11-25T07:37:33.461Z,96913.00
2022-11-25T07:42:34.566Z,96923.00
2022-11-25T07:47:36.288Z,96932.00
2022-11-25T07:52:38.812Z,96923.00
2022-11-25T07:57:39.544Z,96936.00
2022-11-25T08:02:40.404Z,96943.00
2022-11-25T08:07:41.325Z,96944.00
2022-11-25T08:12:42.359Z,96944.00
2022-11-25T08:17:43.106Z,96960.00
2022-11-25T08:22:43.953Z,96960.00
2022-11-25T08:27:44.747Z,96952.00
2022-11-25T08:32:45.577Z,96956.00
2022-11-25T08:37:46.437Z,96963.00
2022-11-25T08:42:47.596Z,96968.00
2022-11-25T08:47:48.340Z,96974.00
2022-11-25T08:52:49.192Z,96971.00
2022-11-25T08:57:49.918Z,96977.00
2022-11-25T09:02:50.791Z,96985.00
2022-11-25T09:07:51.709Z,96977.00
2022-11-25T09:12:52.750Z,96989.00
2022-11-25T09:18:05.018Z,96989.00
2022-11-25T09:23:07.889Z,96997.00
2022-11-25T09:28:08.998Z,97015.00
2022-11-25T09:33:09.815Z,97019.00
2022-11-25T09:38:10.909Z,97024.00
2022-11-25T09:44:50.039Z,97021.00
2022-11-25T09:50:38.426Z,97044.00
2022-11-25T09:55:43.995Z,97046.00
2022-11-25T10:00:47.124Z,97049.00
2022-11-25T10:06:34.185Z,97056.00
2022-11-25T10:12:39.201Z,97056.00
2022-11-25T10:17:53.429Z,97065.00
2022-11-25T10:23:02.784Z,97068.00
2022-11-25T10:28:15.952Z,97075.00
2022-11-25T10:33:53.515Z,97070.00
2022-11-25T10:39:10.673Z,97078.00
2022-11-25T10:44:28.142Z,97078.00
2022-11-25T10:52:11.528Z,97069.00
2022-11-25T10:57:18.413Z,97079.00
2022-11-25T11:02:36.453Z,97081.00
2022-11-25T11:07:40.974Z,97087.00
2022-11-25T11:13:05.984Z,97085.00
2022-11-25T11:20:12.264Z,97100.00
2022-11-25T11:25:33.010Z,97102.00
2022-11-25T11:30:33.941Z,97116.00
2022-11-25T11:38:19.665Z,97122.00
2022-11-25T11:45:04.741Z,97121.00
2022-11-25T11:50:26.706Z,97125.00
2022-11-25T11:56:33.548Z,97140.00
2022-11-25T12:03:21.368Z,97137.00
2022-11-25T12:08:31.314Z,97143.00
2022-11-25T12:17:22.788Z,97152.00
2022-11-25T12:22:33.443Z,97148.00
2022-11-25T12:27:40.595Z,97163.00
2022-11-25T12:35:59.793Z,97172.00
2022-11-25T12:42:11.297Z,97178.00
2022-11-25T12:47:12.457Z,97171.00
2022-11-25T12:55:45.792Z,97188.00
2022-11-25T13:04:13.538Z,97199.00
2022-11-25T13:09:59.025Z,97220.00
2022-11-25T13:15:45.313Z,97221.00
2022-11-25T13:20:49.762Z,97233.00
2022-11-25T13:25:52.272Z,97240.00
2022-11-25T13:30:53.316Z,97255.00
2022-11-25T13:35:56.030Z,97257.00
2022-11-25T13:40:59.051Z,97247.00
2022-11-25T13:46:01.344Z,97253.00
2022-11-25T13:51:20.124Z,97266.00
2022-11-25T13:56:33.482Z,97269.00
2022-11-25T14:01:34.972Z,97277.00
2022-11-25T14:07:20.405Z,97282.00
2022-11-25T14:15:09.912Z,97281.00
2022-11-25T14:20:42.490Z,97294.00
2022-11-25T14:25:51.495Z,97298.00
2022-11-25T14:30:58.703Z,97303.00
2022-11-25T14:36:11.156Z,97308.00
2022-11-25T14:41:48.681Z,97315.00
2022-11-25T14:46:54.390Z,97323.00
2022-11-25T14:51:55.146Z,97325.00
2022-11-25T14:56:56.207Z,97327.00
2022-11-25T15:01:57.350Z,97327.00
2022-11-25T15:07:01.688Z,97345.00
2022-11-25T15:12:12.033Z,97351.00
2022-11-25T15:17:31.622Z,97360.00
2022-11-25T15:22:32.727Z,97366.00
2022-11-25T15:27:33.604Z,97366.00
2022-11-25T15:32:37.624Z,97383.00
2022-11-25T15:37:38.795Z,97386.00
2022-11-25T15:42:41.786Z,97389.00
2022-11-25T15:47:44.993Z,97390.00
2022-11-25T15:52:47.937Z,97394.00
2022-11-25T15:57:50.992Z,97407.00
2022-11-25T16:02:54.684Z,97405.00
2022-11-25T16:07:58.603Z,97406.00
2022-11-25T16:13:36.771Z,97407.00
2022-11-25T16:19:26.470Z,97412.00
2022-11-25T16:24:40.779Z,97419.00
2022-11-25T16:30:10.974Z,97436.00
2022-11-25T16:35:18.537Z,97443.00
2022-11-25T16:40:19.420Z,97461.00
2022-11-25T16:45:23.099Z,97465.00
2022-11-25T16:50:23.958Z,97457.00
2022-11-25T16:55:25.053Z,97468.00
2022-11-25T17:00:25.783Z,97473.00
2022-11-25T17:05:26.954Z,97491.00
2022-11-25T17:10:27.853Z,97497.00
2022-11-25T17:15:34.789Z,97497.00
2022-11-25T17:20:35.761Z,97506.00
2022-11-25T17:25:37.264Z,97512.00
2022-11-25T17:30:38.603Z,97517.00
2022-11-25T17:35:39.349Z,97519.00
2022-11-25T17:40:42.771Z,97522.00
2022-11-25T17:45:44.088Z,97525.00
2022-11-25T17:50:46.819Z,97525.00
2022-11-25T17:55:47.593Z,97538.00
2022-11-25T18:00:48.752Z,97548.00
2022-11-25T18:05:50.060Z,97560.00
2022-11-25T18:10:51.100Z,97569.00
2022-11-25T18:15:52.198Z,97577.00
2022-11-25T18:20:55.103Z,97583.00
2022-11-25T18:25:59.363Z,97585.00
2022-11-25T18:31:04.130Z,97595.00
2022-11-25T18:36:06.051Z,97607.00
2022-11-25T18:41:17.881Z,97612.00
2022-11-25T18:46:18.686Z,97630.00
2022-11-25T18:51:19.952Z,97637.00
2022-11-25T18:56:20.682Z,97650.00
2022-11-25T19:01:23.122Z,97664.00
2022-11-25T19:06:27.268Z,97681.00
2022-11-25T19:11:32.274Z,97687.00
2022-11-25T19:16:33.184Z,97699.00
2022-11-25T19:21:34.271Z,97694.00
2022-11-25T19:26:41.057Z,97704.00
2022-11-25T19:31:41.887Z,97708.00
2022-11-25T19:36:42.797Z,97719.00
2022-11-25T19:41:44.519Z,97721.00
2022-11-25T19:47:13.800Z,97733.00
2022-11-25T19:52:19.980Z,97730.00
2022-11-25T19:57:23.068Z,97733.00
2022-11-25T20:02:26.042Z,97746.00
2022-11-25T20:07:29.259Z,97752.00
2022-11-25T20:12:30.157Z,97758.00
2022-11-25T20:17:32.954Z,97774.00
2022-11-25T20:22:36.936Z,97782.00
2022-11-25T20:27:37.720Z,97784.00
2022-11-25T20:32:38.614Z,97782.00
2022-11-25T20:37:50.766Z,97796.00
2022-11-25T20:42:52.518Z,97800.00
2022-11-25T20:47:53.272Z,97801.00
2022-11-25T20:52:54.064Z,97804.00
2022-11-25T20:57:54.969Z,97806.00
2022-11-25T21:02:56.485Z,97822.00
2022-11-25T21:07:57.414Z,97823.00
2022-11-25T21:12:58.491Z,97826.00
2022-11-25T21:17:59.230Z,97838.00
2022-11-25T21:23:06.982Z,97836.00
2022-11-25T21:28:16.358Z,97836.00
2022-11-25T21:33:17.423Z,97841.00
2022-11-25T21:38:22.551Z,97841.00
2022-11-25T21:43:27.676Z,97846.00
2022-11-25T21:48:30.218Z,97851.00
2022-11-25T21:53:37.011Z,97853.00
2022-11-25T21:58:39.712Z,97865.00
2022-11-25T22:03:40.444Z,97877.00
2022-11-25T22:08:41.260Z,97877.00
2022-11-25T22:13:43.700Z,97883.00
2022-11-25T22:18:44.671Z,97886.00
2022-11-25T22:23:45.506Z,97892.00
2022-11-25T22:28:50.836Z,97897.00
2022-11-25T22:33:51.786Z,97895.00
2022-11-25T22:38:52.538Z,97900.00
2022-11-25T22:43:53.411Z,97909.00
2022-11-25T22:48:54.461Z,97921.00
2022-11-25T22:53:55.178Z,97912.00
2022-11-25T22:58:59.451Z,97919.00
2022-11-25T23:04:00.185Z,97930.00
2022-11-25T23:09:02.230Z,97938.00
2022-11-25T23:14:03.084Z,97949.00
2022-11-25T23:19:04.215Z,97952.00
2022-11-25T23:24:11.864Z,97951.00
2022-11-25T23:29:12.633Z,97959.00
2022-11-25T23:34:13.912Z,97962.00
2022-11-25T23:39:18.872Z,97973.00
2022-11-25T23:44:30.663Z,97971.00
2022-11-25T23:49:38.228Z,97975.00
2022-11-25T23:54:41.965Z,97986.00
2022-11-25T23:59:43.427Z,97992.00
